sensor_id;sensor_type;location;lat;lon;timestamp;P1;durP1;ratioP1;P2;durP2;ratioP2
781;SDS011;374;52.568;13.402;2024-02-14T00:01:16;13.10;;;9.50;;
781;SDS011;374;52.568;13.402;2024-02-14T00:03:43;15.20;;;9.67;;
781;SDS011;374;52.568;13.402;2024-02-14T00:06:09;12.07;;;10.10;;
781;SDS011;374;52.568;13.402;2024-02-14T00:08:37;11.47;;;9.23;;
781;SDS011;374;52.568;13.402;2024-02-14T00:11:03;12.57;;;10.00;;
781;SDS011;374;52.568;13.402;2024-02-14T00:13:29;12.20;;;9.53;;
781;SDS011;374;52.568;13.402;2024-02-14T00:15:55;15.20;;;10.97;;
781;SDS011;374;52.568;13.402;2024-02-14T00:18:24;10.83;;;9.47;;
781;SDS011;374;52.568;13.402;2024-02-14T00:20:50;11.70;;;9.20;;
781;SDS011;374;52.568;13.402;2024-02-14T00:23:15;11.23;;;8.57;;
781;SDS011;374;52.568;13.402;2024-02-14T00:25:41;14.03;;;10.03;;
781;SDS011;374;52.568;13.402;2024-02-14T00:28:07;14.83;;;10.00;;
781;SDS011;374;52.568;13.402;2024-02-14T00:30:33;13.80;;;9.60;;
781;SDS011;374;52.568;13.402;2024-02-14T00:32:59;15.80;;;10.40;;
781;SDS011;374;52.568;13.402;2024-02-14T00:35:26;12.80;;;10.30;;
781;SDS011;374;52.568;13.402;2024-02-14T00:37:51;12.07;;;8.70;;
781;SDS011;374;52.568;13.402;2024-02-14T00:40:18;11.17;;;9.47;;
781;SDS011;374;52.568;13.402;2024-02-14T00:42:44;15.90;;;10.13;;
781;SDS011;374;52.568;13.402;2024-02-14T00:45:09;13.43;;;9.50;;
781;SDS011;374;52.568;13.402;2024-02-14T00:47:36;13.13;;;9.73;;
781;SDS011;374;52.568;13.402;2024-02-14T00:50:02;13.40;;;9.53;;
781;SDS011;374;52.568;13.402;2024-02-14T00:52:28;12.53;;;9.70;;
781;SDS011;374;52.568;13.402;2024-02-14T00:54:54;11.17;;;9.27;;
781;SDS011;374;52.568;13.402;2024-02-14T00:57:23;13.50;;;8.77;;
781;SDS011;374;52.568;13.402;2024-02-14T00:59:53;12.27;;;8.90;;
781;SDS011;374;52.568;13.402;2024-02-14T01:02:21;13.53;;;9.30;;
781;SDS011;374;52.568;13.402;2024-02-14T01:04:50;14.10;;;10.07;;
781;SDS011;374;52.568;13.402;2024-02-14T01:07:16;12.50;;;10.10;;
781;SDS011;374;52.568;13.402;2024-02-14T01:09:42;11.17;;;9.70;;
781;SDS011;374;52.568;13.402;2024-02-14T01:12:11;11.17;;;9.73;;
781;SDS011;374;52.568;13.402;2024-02-14T01:14:37;12.63;;;10.60;;
781;SDS011;374;52.568;13.402;2024-02-14T01:17:05;13.60;;;10.77;;
781;SDS011;374;52.568;13.402;2024-02-14T01:19:31;16.10;;;9.70;;
781;SDS011;374;52.568;13.402;2024-02-14T01:21:58;13.60;;;10.20;;
781;SDS011;374;52.568;13.402;2024-02-14T01:24:24;10.73;;;9.63;;
781;SDS011;374;52.568;13.402;2024-02-14T01:26:55;12.17;;;9.17;;
781;SDS011;374;52.568;13.402;2024-02-14T01:29:21;11.80;;;9.43;;
781;SDS011;374;52.568;13.402;2024-02-14T01:31:48;15.37;;;9.80;;
781;SDS011;374;52.568;13.402;2024-02-14T01:34:15;10.00;;;9.00;;
781;SDS011;374;52.568;13.402;2024-02-14T01:36:41;11.60;;;9.43;;
781;SDS011;374;52.568;13.402;2024-02-14T01:39:07;13.73;;;9.40;;
781;SDS011;374;52.568;13.402;2024-02-14T01:41:36;15.50;;;10.00;;
781;SDS011;374;52.568;13.402;2024-02-14T01:44:02;13.33;;;9.90;;
781;SDS011;374;52.568;13.402;2024-02-14T01:46:28;11.97;;;9.97;;
781;SDS011;374;52.568;13.402;2024-02-14T01:48:55;13.70;;;10.70;;
781;SDS011;374;52.568;13.402;2024-02-14T01:51:22;12.50;;;10.33;;
781;SDS011;374;52.568;13.402;2024-02-14T01:53:49;12.97;;;9.70;;
781;SDS011;374;52.568;13.402;2024-02-14T01:56:15;16.73;;;10.10;;
781;SDS011;374;52.568;13.402;2024-02-14T01:58:41;16.60;;;11.40;;
781;SDS011;374;52.568;13.402;2024-02-14T02:01:07;15.47;;;10.30;;
781;SDS011;374;52.568;13.402;2024-02-14T02:03:34;16.00;;;10.70;;
781;SDS011;374;52.568;13.402;2024-02-14T02:06:02;11.30;;;9.83;;
781;SDS011;374;52.568;13.402;2024-02-14T02:08:28;16.47;;;9.90;;
781;SDS011;374;52.568;13.402;2024-02-14T02:10:54;14.90;;;9.70;;
781;SDS011;374;52.568;13.402;2024-02-14T02:13:20;11.63;;;10.10;;
781;SDS011;374;52.568;13.402;2024-02-14T02:15:46;15.30;;;9.73;;
781;SDS011;374;52.568;13.402;2024-02-14T02:18:12;12.13;;;9.90;;
781;SDS011;374;52.568;13.402;2024-02-14T02:20:38;11.70;;;9.23;;
781;SDS011;374;52.568;13.402;2024-02-14T02:23:04;13.60;;;10.00;;
781;SDS011;374;52.568;13.402;2024-02-14T02:25:30;16.63;;;10.00;;
781;SDS011;374;52.568;13.402;2024-02-14T02:27:59;12.90;;;9.50;;
781;SDS011;374;52.568;13.402;2024-02-14T02:30:24;13.40;;;10.20;;
781;SDS011;374;52.568;13.402;2024-02-14T02:32:51;15.77;;;9.30;;
781;SDS011;374;52.568;13.402;2024-02-14T02:35:17;11.10;;;9.77;;
781;SDS011;374;52.568;13.402;2024-02-14T02:37:46;10.03;;;9.03;;
781;SDS011;374;52.568;13.402;2024-02-14T02:40:15;13.27;;;9.20;;
781;SDS011;374;52.568;13.402;2024-02-14T02:42:42;13.00;;;10.13;;
781;SDS011;374;52.568;13.402;2024-02-14T02:45:10;13.27;;;9.50;;
781;SDS011;374;52.568;13.402;2024-02-14T02:47:36;12.57;;;9.77;;
781;SDS011;374;52.568;13.402;2024-02-14T02:50:02;9.07;;;8.03;;
781;SDS011;374;52.568;13.402;2024-02-14T02:52:28;15.83;;;10.50;;
781;SDS011;374;52.568;13.402;2024-02-14T02:54:54;13.63;;;9.37;;
781;SDS011;374;52.568;13.402;2024-02-14T02:57:20;11.70;;;9.67;;
781;SDS011;374;52.568;13.402;2024-02-14T02:59:46;14.33;;;9.77;;
781;SDS011;374;52.568;13.402;2024-02-14T03:02:16;11.80;;;9.20;;
781;SDS011;374;52.568;13.402;2024-02-14T03:04:42;16.33;;;10.07;;
781;SDS011;374;52.568;13.402;2024-02-14T03:07:08;14.97;;;9.33;;
781;SDS011;374;52.568;13.402;2024-02-14T03:09:37;11.03;;;8.83;;
781;SDS011;374;52.568;13.402;2024-02-14T03:12:03;15.60;;;9.57;;
781;SDS011;374;52.568;13.402;2024-02-14T03:14:32;12.83;;;10.40;;
781;SDS011;374;52.568;13.402;2024-02-14T03:16:59;11.13;;;9.63;;
781;SDS011;374;52.568;13.402;2024-02-14T03:19:26;13.07;;;9.90;;
781;SDS011;374;52.568;13.402;2024-02-14T03:21:55;11.17;;;9.07;;
781;SDS011;374;52.568;13.402;2024-02-14T03:24:21;11.03;;;9.70;;
781;SDS011;374;52.568;13.402;2024-02-14T03:26:47;14.80;;;9.90;;
781;SDS011;374;52.568;13.402;2024-02-14T03:29:19;10.40;;;8.27;;
781;SDS011;374;52.568;13.402;2024-02-14T03:31:46;11.53;;;9.70;;
781;SDS011;374;52.568;13.402;2024-02-14T03:34:12;14.00;;;9.57;;
781;SDS011;374;52.568;13.402;2024-02-14T03:36:38;13.07;;;9.97;;
781;SDS011;374;52.568;13.402;2024-02-14T03:39:04;11.17;;;9.97;;
781;SDS011;374;52.568;13.402;2024-02-14T03:41:38;10.97;;;9.43;;
781;SDS011;374;52.568;13.402;2024-02-14T03:44:04;11.13;;;9.77;;
781;SDS011;374;52.568;13.402;2024-02-14T03:46:33;11.33;;;10.13;;
781;SDS011;374;52.568;13.402;2024-02-14T03:49:00;11.40;;;10.17;;
781;SDS011;374;52.568;13.402;2024-02-14T03:51:26;10.17;;;8.90;;
781;SDS011;374;52.568;13.402;2024-02-14T03:53:52;13.57;;;9.20;;
781;SDS011;374;52.568;13.402;2024-02-14T03:56:18;12.57;;;10.13;;
781;SDS011;374;52.568;13.402;2024-02-14T03:58:44;14.53;;;9.60;;
781;SDS011;374;52.568;13.402;2024-02-14T04:01:12;15.13;;;9.50;;
781;SDS011;374;52.568;13.402;2024-02-14T04:03:38;12.77;;;9.40;;
781;SDS011;374;52.568;13.402;2024-02-14T04:06:04;10.57;;;9.23;;
781;SDS011;374;52.568;13.402;2024-02-14T04:08:30;13.10;;;9.60;;
781;SDS011;374;52.568;13.402;2024-02-14T04:10:56;11.90;;;9.10;;
781;SDS011;374;52.568;13.402;2024-02-14T04:13:22;12.27;;;9.23;;
781;SDS011;374;52.568;13.402;2024-02-14T04:15:50;13.53;;;9.50;;
781;SDS011;374;52.568;13.402;2024-02-14T04:18:16;10.50;;;9.10;;
781;SDS011;374;52.568;13.402;2024-02-14T04:20:43;12.40;;;8.70;;
781;SDS011;374;52.568;13.402;2024-02-14T04:23:09;13.93;;;10.07;;
781;SDS011;374;52.568;13.402;2024-02-14T04:25:35;15.60;;;9.40;;
781;SDS011;374;52.568;13.402;2024-02-14T04:28:04;13.57;;;10.23;;
781;SDS011;374;52.568;13.402;2024-02-14T04:30:30;14.93;;;9.20;;
781;SDS011;374;52.568;13.402;2024-02-14T04:32:56;13.27;;;9.43;;
781;SDS011;374;52.568;13.402;2024-02-14T04:35:22;11.50;;;9.43;;
781;SDS011;374;52.568;13.402;2024-02-14T04:37:48;12.30;;;10.00;;
781;SDS011;374;52.568;13.402;2024-02-14T04:40:14;11.27;;;9.97;;
781;SDS011;374;52.568;13.402;2024-02-14T04:42:41;10.90;;;9.50;;
781;SDS011;374;52.568;13.402;2024-02-14T04:45:07;13.23;;;8.90;;
781;SDS011;374;52.568;13.402;2024-02-14T04:47:33;13.27;;;9.13;;
781;SDS011;374;52.568;13.402;2024-02-14T04:49:59;13.87;;;10.53;;
781;SDS011;374;52.568;13.402;2024-02-14T04:52:25;13.03;;;10.17;;
781;SDS011;374;52.568;13.402;2024-02-14T04:54:51;11.20;;;10.00;;
781;SDS011;374;52.568;13.402;2024-02-14T04:57:17;13.10;;;10.07;;
781;SDS011;374;52.568;13.402;2024-02-14T04:59:45;13.20;;;10.50;;
781;SDS011;374;52.568;13.402;2024-02-14T05:02:11;14.93;;;10.13;;
781;SDS011;374;52.568;13.402;2024-02-14T05:04:39;11.60;;;10.40;;
781;SDS011;374;52.568;13.402;2024-02-14T05:07:08;16.60;;;11.03;;
781;SDS011;374;52.568;13.402;2024-02-14T05:09:34;12.93;;;10.93;;
781;SDS011;374;52.568;13.402;2024-02-14T05:12:00;12.50;;;9.43;;
781;SDS011;374;52.568;13.402;2024-02-14T05:14:28;12.53;;;10.57;;
781;SDS011;374;52.568;13.402;2024-02-14T05:16:57;15.40;;;10.80;;
781;SDS011;374;52.568;13.402;2024-02-14T05:19:26;12.00;;;10.37;;
781;SDS011;374;52.568;13.402;2024-02-14T05:21:54;13.67;;;10.47;;
781;SDS011;374;52.568;13.402;2024-02-14T05:24:20;11.70;;;10.30;;
781;SDS011;374;52.568;13.402;2024-02-14T05:26:46;11.83;;;9.37;;
781;SDS011;374;52.568;13.402;2024-02-14T05:29:12;14.53;;;10.97;;
781;SDS011;374;52.568;13.402;2024-02-14T05:31:42;13.17;;;9.87;;
781;SDS011;374;52.568;13.402;2024-02-14T05:34:09;15.40;;;9.50;;
781;SDS011;374;52.568;13.402;2024-02-14T05:36:35;16.03;;;9.73;;
781;SDS011;374;52.568;13.402;2024-02-14T05:39:01;14.33;;;10.17;;
781;SDS011;374;52.568;13.402;2024-02-14T05:41:27;12.40;;;10.30;;
781;SDS011;374;52.568;13.402;2024-02-14T05:43:53;13.17;;;10.33;;
781;SDS011;374;52.568;13.402;2024-02-14T05:46:19;14.27;;;9.77;;
781;SDS011;374;52.568;13.402;2024-02-14T05:48:45;11.23;;;10.00;;
781;SDS011;374;52.568;13.402;2024-02-14T05:51:13;10.90;;;9.43;;
781;SDS011;374;52.568;13.402;2024-02-14T05:53:39;10.10;;;9.10;;
781;SDS011;374;52.568;13.402;2024-02-14T05:56:05;13.40;;;9.97;;
781;SDS011;374;52.568;13.402;2024-02-14T05:58:31;11.97;;;9.83;;
781;SDS011;374;52.568;13.402;2024-02-14T06:00:57;16.77;;;13.53;;
781;SDS011;374;52.568;13.402;2024-02-14T06:03:22;15.67;;;10.80;;
781;SDS011;374;52.568;13.402;2024-02-14T06:05:51;10.83;;;9.43;;
781;SDS011;374;52.568;13.402;2024-02-14T06:08:20;13.90;;;10.60;;
781;SDS011;374;52.568;13.402;2024-02-14T06:10:48;16.90;;;11.10;;
781;SDS011;374;52.568;13.402;2024-02-14T06:13:14;17.73;;;10.83;;
781;SDS011;374;52.568;13.402;2024-02-14T06:15:40;11.30;;;9.50;;
781;SDS011;374;52.568;13.402;2024-02-14T06:18:06;19.80;;;10.13;;
781;SDS011;374;52.568;13.402;2024-02-14T06:20:32;10.47;;;8.60;;
781;SDS011;374;52.568;13.402;2024-02-14T06:22:58;11.43;;;9.93;;
781;SDS011;374;52.568;13.402;2024-02-14T06:25:24;14.67;;;10.60;;
781;SDS011;374;52.568;13.402;2024-02-14T06:27:53;10.90;;;9.80;;
781;SDS011;374;52.568;13.402;2024-02-14T06:30:22;12.17;;;9.80;;
781;SDS011;374;52.568;13.402;2024-02-14T06:32:47;12.10;;;9.60;;
781;SDS011;374;52.568;13.402;2024-02-14T06:35:13;12.63;;;10.40;;
781;SDS011;374;52.568;13.402;2024-02-14T06:37:43;13.60;;;10.40;;
781;SDS011;374;52.568;13.402;2024-02-14T06:40:09;10.80;;;9.70;;
781;SDS011;374;52.568;13.402;2024-02-14T06:42:35;10.90;;;9.33;;
781;SDS011;374;52.568;13.402;2024-02-14T06:45:01;11.77;;;9.97;;
781;SDS011;374;52.568;13.402;2024-02-14T06:47:28;15.47;;;9.97;;
781;SDS011;374;52.568;13.402;2024-02-14T06:50:14;11.03;;;9.80;;
781;SDS011;374;52.568;13.402;2024-02-14T06:52:40;10.97;;;9.03;;
781;SDS011;374;52.568;13.402;2024-02-14T06:55:20;14.40;;;9.20;;
781;SDS011;374;52.568;13.402;2024-02-14T06:57:53;9.90;;;8.90;;
781;SDS011;374;52.568;13.402;2024-02-14T07:00:19;13.90;;;9.57;;
781;SDS011;374;52.568;13.402;2024-02-14T07:02:45;10.90;;;9.80;;
781;SDS011;374;52.568;13.402;2024-02-14T07:05:14;13.40;;;9.40;;
781;SDS011;374;52.568;13.402;2024-02-14T07:07:45;14.70;;;10.10;;
781;SDS011;374;52.568;13.402;2024-02-14T07:10:32;12.57;;;9.43;;
781;SDS011;374;52.568;13.402;2024-02-14T07:12:58;11.63;;;9.40;;
781;SDS011;374;52.568;13.402;2024-02-14T07:15:24;11.93;;;9.17;;
781;SDS011;374;52.568;13.402;2024-02-14T07:17:53;12.43;;;7.60;;
781;SDS011;374;52.568;13.402;2024-02-14T07:20:20;12.07;;;8.90;;
781;SDS011;374;52.568;13.402;2024-02-14T07:22:46;9.23;;;7.93;;
781;SDS011;374;52.568;13.402;2024-02-14T07:25:18;10.37;;;8.80;;
781;SDS011;374;52.568;13.402;2024-02-14T07:27:44;9.57;;;8.60;;
781;SDS011;374;52.568;13.402;2024-02-14T07:30:11;10.20;;;9.03;;
781;SDS011;374;52.568;13.402;2024-02-14T07:32:37;11.80;;;8.50;;
781;SDS011;374;52.568;13.402;2024-02-14T07:35:03;10.77;;;8.40;;
781;SDS011;374;52.568;13.402;2024-02-14T07:37:30;10.00;;;8.77;;
781;SDS011;374;52.568;13.402;2024-02-14T07:39:56;13.30;;;8.40;;
781;SDS011;374;52.568;13.402;2024-02-14T07:42:22;11.03;;;8.40;;
781;SDS011;374;52.568;13.402;2024-02-14T07:44:48;9.20;;;7.57;;
781;SDS011;374;52.568;13.402;2024-02-14T07:47:14;11.17;;;8.40;;
781;SDS011;374;52.568;13.402;2024-02-14T07:49:40;11.60;;;8.80;;
781;SDS011;374;52.568;13.402;2024-02-14T07:52:06;9.90;;;8.40;;
781;SDS011;374;52.568;13.402;2024-02-14T07:54:32;9.80;;;7.90;;
781;SDS011;374;52.568;13.402;2024-02-14T07:56:58;10.80;;;8.30;;
781;SDS011;374;52.568;13.402;2024-02-14T07:59:24;13.77;;;8.80;;
781;SDS011;374;52.568;13.402;2024-02-14T08:01:50;11.13;;;9.10;;
781;SDS011;374;52.568;13.402;2024-02-14T08:04:15;11.80;;;9.23;;
781;SDS011;374;52.568;13.402;2024-02-14T08:06:41;19.03;;;9.40;;
781;SDS011;374;52.568;13.402;2024-02-14T08:09:08;12.07;;;8.67;;
781;SDS011;374;52.568;13.402;2024-02-14T08:11:35;11.23;;;8.60;;
781;SDS011;374;52.568;13.402;2024-02-14T08:14:01;11.60;;;8.63;;
781;SDS011;374;52.568;13.402;2024-02-14T08:16:27;13.20;;;9.30;;
781;SDS011;374;52.568;13.402;2024-02-14T08:18:53;9.57;;;8.23;;
781;SDS011;374;52.568;13.402;2024-02-14T08:21:24;8.87;;;7.97;;
781;SDS011;374;52.568;13.402;2024-02-14T08:23:50;14.37;;;8.23;;
781;SDS011;374;52.568;13.402;2024-02-14T08:26:16;9.63;;;8.63;;
781;SDS011;374;52.568;13.402;2024-02-14T08:28:42;10.00;;;7.83;;
781;SDS011;374;52.568;13.402;2024-02-14T08:31:11;11.40;;;8.53;;
781;SDS011;374;52.568;13.402;2024-02-14T08:33:37;9.13;;;8.20;;
781;SDS011;374;52.568;13.402;2024-02-14T08:36:04;18.13;;;9.20;;
781;SDS011;374;52.568;13.402;2024-02-14T08:38:30;12.37;;;8.33;;
781;SDS011;374;52.568;13.402;2024-02-14T08:40:57;10.63;;;7.30;;
781;SDS011;374;52.568;13.402;2024-02-14T08:43:23;9.17;;;8.23;;
781;SDS011;374;52.568;13.402;2024-02-14T08:45:54;9.47;;;7.90;;
781;SDS011;374;52.568;13.402;2024-02-14T08:48:20;13.87;;;7.77;;
781;SDS011;374;52.568;13.402;2024-02-14T08:50:46;9.70;;;8.70;;
781;SDS011;374;52.568;13.402;2024-02-14T08:53:12;8.43;;;6.90;;
781;SDS011;374;52.568;13.402;2024-02-14T08:55:44;10.93;;;8.20;;
781;SDS011;374;52.568;13.402;2024-02-14T08:58:10;8.47;;;6.67;;
781;SDS011;374;52.568;13.402;2024-02-14T09:00:36;7.27;;;6.53;;
781;SDS011;374;52.568;13.402;2024-02-14T09:03:03;10.50;;;7.37;;
781;SDS011;374;52.568;13.402;2024-02-14T09:05:29;8.07;;;6.97;;
781;SDS011;374;52.568;13.402;2024-02-14T09:07:55;7.83;;;6.70;;
781;SDS011;374;52.568;13.402;2024-02-14T09:10:21;8.47;;;6.90;;
781;SDS011;374;52.568;13.402;2024-02-14T09:12:47;8.37;;;6.60;;
781;SDS011;374;52.568;13.402;2024-02-14T09:15:13;11.33;;;7.90;;
781;SDS011;374;52.568;13.402;2024-02-14T09:17:39;10.53;;;8.50;;
781;SDS011;374;52.568;13.402;2024-02-14T09:20:07;12.90;;;6.87;;
781;SDS011;374;52.568;13.402;2024-02-14T09:22:37;11.80;;;7.70;;
781;SDS011;374;52.568;13.402;2024-02-14T09:25:04;8.47;;;6.83;;
781;SDS011;374;52.568;13.402;2024-02-14T09:27:30;7.90;;;6.17;;
781;SDS011;374;52.568;13.402;2024-02-14T09:29:57;9.17;;;6.50;;
781;SDS011;374;52.568;13.402;2024-02-14T09:32:23;11.27;;;6.40;;
781;SDS011;374;52.568;13.402;2024-02-14T09:34:49;8.40;;;5.60;;
781;SDS011;374;52.568;13.402;2024-02-14T09:37:15;8.63;;;5.63;;
781;SDS011;374;52.568;13.402;2024-02-14T09:39:44;6.60;;;6.00;;
781;SDS011;374;52.568;13.402;2024-02-14T09:42:11;5.77;;;4.87;;
781;SDS011;374;52.568;13.402;2024-02-14T09:44:38;6.67;;;5.67;;
781;SDS011;374;52.568;13.402;2024-02-14T09:47:05;6.43;;;5.43;;
781;SDS011;374;52.568;13.402;2024-02-14T09:49:31;6.80;;;5.80;;
781;SDS011;374;52.568;13.402;2024-02-14T09:51:58;9.67;;;5.63;;
781;SDS011;374;52.568;13.402;2024-02-14T09:54:25;14.40;;;6.97;;
781;SDS011;374;52.568;13.402;2024-02-14T09:56:51;8.20;;;6.30;;
781;SDS011;374;52.568;13.402;2024-02-14T09:59:28;7.60;;;6.37;;
781;SDS011;374;52.568;13.402;2024-02-14T10:01:54;6.40;;;5.80;;
781;SDS011;374;52.568;13.402;2024-02-14T10:04:20;6.13;;;5.30;;
781;SDS011;374;52.568;13.402;2024-02-14T10:06:47;9.57;;;5.60;;
781;SDS011;374;52.568;13.402;2024-02-14T10:09:18;9.00;;;5.33;;
781;SDS011;374;52.568;13.402;2024-02-14T10:11:44;9.13;;;7.50;;
781;SDS011;374;52.568;13.402;2024-02-14T10:14:11;6.87;;;5.73;;
781;SDS011;374;52.568;13.402;2024-02-14T10:16:38;6.53;;;5.77;;
781;SDS011;374;52.568;13.402;2024-02-14T10:19:04;9.27;;;7.33;;
781;SDS011;374;52.568;13.402;2024-02-14T10:21:32;7.97;;;5.37;;
781;SDS011;374;52.568;13.402;2024-02-14T10:24:01;7.00;;;5.97;;
781;SDS011;374;52.568;13.402;2024-02-14T10:26:28;5.60;;;5.00;;
781;SDS011;374;52.568;13.402;2024-02-14T10:28:56;5.70;;;4.97;;
781;SDS011;374;52.568;13.402;2024-02-14T10:31:25;5.63;;;5.13;;
781;SDS011;374;52.568;13.402;2024-02-14T10:33:52;6.83;;;5.30;;
781;SDS011;374;52.568;13.402;2024-02-14T10:36:18;8.10;;;5.57;;
781;SDS011;374;52.568;13.402;2024-02-14T10:38:45;6.10;;;5.50;;
781;SDS011;374;52.568;13.402;2024-02-14T10:41:19;5.87;;;4.90;;
781;SDS011;374;52.568;13.402;2024-02-14T10:43:47;7.13;;;5.87;;
781;SDS011;374;52.568;13.402;2024-02-14T10:46:20;6.93;;;5.00;;
781;SDS011;374;52.568;13.402;2024-02-14T10:48:52;8.07;;;6.33;;
781;SDS011;374;52.568;13.402;2024-02-14T10:51:19;7.70;;;5.23;;
781;SDS011;374;52.568;13.402;2024-02-14T10:53:47;5.87;;;5.27;;
781;SDS011;374;52.568;13.402;2024-02-14T10:56:26;6.13;;;5.07;;
781;SDS011;374;52.568;13.402;2024-02-14T10:58:55;8.33;;;5.90;;
781;SDS011;374;52.568;13.402;2024-02-14T11:01:30;8.80;;;5.30;;
781;SDS011;374;52.568;13.402;2024-02-14T11:03:58;5.50;;;4.97;;
781;SDS011;374;52.568;13.402;2024-02-14T11:06:25;11.10;;;5.80;;
781;SDS011;374;52.568;13.402;2024-02-14T11:08:58;7.50;;;5.70;;
781;SDS011;374;52.568;13.402;2024-02-14T11:11:33;8.00;;;5.17;;
781;SDS011;374;52.568;13.402;2024-02-14T11:13:59;6.27;;;5.67;;
781;SDS011;374;52.568;13.402;2024-02-14T11:16:28;9.27;;;6.00;;
781;SDS011;374;52.568;13.402;2024-02-14T11:19:07;5.80;;;5.30;;
781;SDS011;374;52.568;13.402;2024-02-14T11:21:44;5.30;;;4.80;;
781;SDS011;374;52.568;13.402;2024-02-14T11:24:11;8.50;;;6.60;;
781;SDS011;374;52.568;13.402;2024-02-14T11:26:40;10.43;;;6.30;;
781;SDS011;374;52.568;13.402;2024-02-14T11:29:06;8.17;;;6.50;;
781;SDS011;374;52.568;13.402;2024-02-14T11:31:35;10.27;;;7.50;;
781;SDS011;374;52.568;13.402;2024-02-14T11:34:03;11.80;;;7.50;;
781;SDS011;374;52.568;13.402;2024-02-14T11:36:29;11.47;;;6.47;;
781;SDS011;374;52.568;13.402;2024-02-14T11:38:55;15.73;;;7.40;;
781;SDS011;374;52.568;13.402;2024-02-14T11:41:21;7.93;;;6.40;;
781;SDS011;374;52.568;13.402;2024-02-14T11:43:50;8.63;;;6.57;;
781;SDS011;374;52.568;13.402;2024-02-14T11:46:16;8.83;;;6.43;;
781;SDS011;374;52.568;13.402;2024-02-14T11:48:43;11.50;;;7.27;;
781;SDS011;374;52.568;13.402;2024-02-14T11:51:15;9.53;;;6.97;;
781;SDS011;374;52.568;13.402;2024-02-14T11:53:41;10.10;;;5.87;;
781;SDS011;374;52.568;13.402;2024-02-14T11:56:07;16.43;;;6.40;;
781;SDS011;374;52.568;13.402;2024-02-14T11:58:33;7.83;;;7.13;;
781;SDS011;374;52.568;13.402;2024-02-14T12:00:59;7.67;;;6.40;;
781;SDS011;374;52.568;13.402;2024-02-14T12:03:32;7.03;;;6.33;;
781;SDS011;374;52.568;13.402;2024-02-14T12:06:00;9.03;;;6.67;;
781;SDS011;374;52.568;13.402;2024-02-14T12:08:27;7.40;;;6.30;;
781;SDS011;374;52.568;13.402;2024-02-14T12:10:58;10.53;;;7.67;;
781;SDS011;374;52.568;13.402;2024-02-14T12:13:24;9.47;;;6.50;;
781;SDS011;374;52.568;13.402;2024-02-14T12:15:51;9.07;;;7.63;;
781;SDS011;374;52.568;13.402;2024-02-14T12:18:19;9.90;;;6.30;;
781;SDS011;374;52.568;13.402;2024-02-14T12:20:46;10.60;;;6.60;;
781;SDS011;374;52.568;13.402;2024-02-14T12:23:18;10.50;;;7.30;;
781;SDS011;374;52.568;13.402;2024-02-14T12:26:02;7.60;;;6.80;;
781;SDS011;374;52.568;13.402;2024-02-14T12:28:29;12.00;;;7.70;;
781;SDS011;374;52.568;13.402;2024-02-14T12:30:59;7.20;;;6.57;;
781;SDS011;374;52.568;13.402;2024-02-14T12:33:25;8.70;;;5.80;;
781;SDS011;374;52.568;13.402;2024-02-14T12:35:53;8.60;;;6.40;;
781;SDS011;374;52.568;13.402;2024-02-14T12:38:19;10.60;;;6.97;;
781;SDS011;374;52.568;13.402;2024-02-14T12:40:46;10.20;;;6.47;;
781;SDS011;374;52.568;13.402;2024-02-14T12:43:13;13.00;;;8.60;;
781;SDS011;374;52.568;13.402;2024-02-14T12:45:39;8.17;;;7.37;;
781;SDS011;374;52.568;13.402;2024-02-14T12:48:05;7.80;;;7.00;;
781;SDS011;374;52.568;13.402;2024-02-14T12:50:33;11.70;;;7.27;;
781;SDS011;374;52.568;13.402;2024-02-14T12:52:59;10.37;;;7.43;;
781;SDS011;374;52.568;13.402;2024-02-14T12:55:25;10.43;;;6.20;;
781;SDS011;374;52.568;13.402;2024-02-14T12:57:53;7.77;;;6.97;;
781;SDS011;374;52.568;13.402;2024-02-14T13:00:19;12.30;;;7.07;;
781;SDS011;374;52.568;13.402;2024-02-14T13:02:47;10.00;;;8.07;;
781;SDS011;374;52.568;13.402;2024-02-14T13:05:13;13.23;;;7.60;;
781;SDS011;374;52.568;13.402;2024-02-14T13:07:39;8.77;;;7.30;;
781;SDS011;374;52.568;13.402;2024-02-14T13:10:05;8.53;;;6.63;;
781;SDS011;374;52.568;13.402;2024-02-14T13:12:33;7.77;;;6.97;;
781;SDS011;374;52.568;13.402;2024-02-14T13:14:59;10.50;;;7.07;;
781;SDS011;374;52.568;13.402;2024-02-14T13:17:24;10.20;;;8.20;;
781;SDS011;374;52.568;13.402;2024-02-14T13:19:51;11.97;;;7.97;;
781;SDS011;374;52.568;13.402;2024-02-14T13:22:18;10.93;;;7.60;;
781;SDS011;374;52.568;13.402;2024-02-14T13:24:44;11.50;;;9.03;;
781;SDS011;374;52.568;13.402;2024-02-14T13:27:10;14.40;;;8.40;;
781;SDS011;374;52.568;13.402;2024-02-14T13:29:36;12.07;;;8.00;;
781;SDS011;374;52.568;13.402;2024-02-14T13:32:02;10.83;;;8.60;;
781;SDS011;374;52.568;13.402;2024-02-14T13:34:28;8.53;;;7.60;;
781;SDS011;374;52.568;13.402;2024-02-14T13:36:57;11.90;;;7.50;;
781;SDS011;374;52.568;13.402;2024-02-14T13:39:23;10.50;;;7.73;;
781;SDS011;374;52.568;13.402;2024-02-14T13:41:49;10.17;;;7.20;;
781;SDS011;374;52.568;13.402;2024-02-14T13:44:16;10.83;;;7.77;;
781;SDS011;374;52.568;13.402;2024-02-14T13:46:50;11.07;;;7.80;;
781;SDS011;374;52.568;13.402;2024-02-14T13:49:17;9.00;;;7.73;;
781;SDS011;374;52.568;13.402;2024-02-14T13:51:50;9.43;;;7.20;;
781;SDS011;374;52.568;13.402;2024-02-14T13:54:27;9.97;;;8.93;;
781;SDS011;374;52.568;13.402;2024-02-14T13:56:55;12.63;;;8.47;;
781;SDS011;374;52.568;13.402;2024-02-14T13:59:21;10.77;;;8.67;;
781;SDS011;374;52.568;13.402;2024-02-14T14:01:47;10.80;;;8.30;;
781;SDS011;374;52.568;13.402;2024-02-14T14:04:14;14.37;;;9.00;;
781;SDS011;374;52.568;13.402;2024-02-14T14:06:46;15.67;;;9.93;;
781;SDS011;374;52.568;13.402;2024-02-14T14:09:20;12.30;;;9.10;;
781;SDS011;374;52.568;13.402;2024-02-14T14:11:50;11.47;;;8.07;;
781;SDS011;374;52.568;13.402;2024-02-14T14:14:17;9.70;;;8.33;;
781;SDS011;374;52.568;13.402;2024-02-14T14:16:46;12.77;;;8.73;;
781;SDS011;374;52.568;13.402;2024-02-14T14:19:12;21.13;;;8.10;;
781;SDS011;374;52.568;13.402;2024-02-14T14:21:38;10.07;;;8.13;;
781;SDS011;374;52.568;13.402;2024-02-14T14:24:04;11.40;;;7.97;;
781;SDS011;374;52.568;13.402;2024-02-14T14:26:30;11.87;;;9.20;;
781;SDS011;374;52.568;13.402;2024-02-14T14:28:56;14.97;;;8.50;;
781;SDS011;374;52.568;13.402;2024-02-14T14:31:22;11.60;;;7.77;;
781;SDS011;374;52.568;13.402;2024-02-14T14:33:48;13.10;;;8.30;;
781;SDS011;374;52.568;13.402;2024-02-14T14:36:14;14.53;;;9.17;;
781;SDS011;374;52.568;13.402;2024-02-14T14:38:40;14.27;;;9.73;;
781;SDS011;374;52.568;13.402;2024-02-14T14:41:09;12.00;;;9.00;;
781;SDS011;374;52.568;13.402;2024-02-14T14:43:35;10.33;;;8.30;;
781;SDS011;374;52.568;13.402;2024-02-14T14:46:01;12.00;;;8.13;;
781;SDS011;374;52.568;13.402;2024-02-14T14:48:27;16.17;;;9.13;;
781;SDS011;374;52.568;13.402;2024-02-14T14:50:53;12.60;;;8.10;;
781;SDS011;374;52.568;13.402;2024-02-14T14:53:21;11.60;;;8.30;;
781;SDS011;374;52.568;13.402;2024-02-14T14:55:49;10.40;;;8.90;;
781;SDS011;374;52.568;13.402;2024-02-14T14:58:15;18.50;;;9.53;;
781;SDS011;374;52.568;13.402;2024-02-14T15:00:42;13.77;;;9.80;;
781;SDS011;374;52.568;13.402;2024-02-14T15:03:09;18.03;;;9.47;;
781;SDS011;374;52.568;13.402;2024-02-14T15:05:36;9.53;;;8.57;;
781;SDS011;374;52.568;13.402;2024-02-14T15:08:03;15.87;;;10.00;;
781;SDS011;374;52.568;13.402;2024-02-14T15:10:29;13.67;;;9.03;;
781;SDS011;374;52.568;13.402;2024-02-14T15:12:55;12.00;;;8.70;;
781;SDS011;374;52.568;13.402;2024-02-14T15:15:20;12.97;;;9.27;;
781;SDS011;374;52.568;13.402;2024-02-14T15:17:46;10.30;;;8.73;;